Time;durP1;ratioP1;P1;durP2;ratioP2;P2;SDS_P1;SDS_P2;PMS_P1;PMS_P2;Temp;Humidity;BMP_temperature;BMP_pressure;BME280_temperature;BME280_humidity;BME280_pressure;Samples;Min_cycle;Max_cycle;Signal;HPM_P1;HPM_P2
2022/02/28 00:09:18;;;;;;;102.80;50.10;;;;;;;-3.33;79.07;100244.44;432595;1270;97900;-41
2022/02/28 00:19:25;;;;;;;132.80;59.80;;;;;;;-3.42;79.22;100239.14;432401;1270;108863;-40
2022/02/28 00:29:32;;;;;;;119.10;53.10;;;;;;;-3.49;79.45;100231.70;432695;1270;108945;-41
2022/02/28 00:39:39;;;;;;;120.70;51.20;;;;;;;-3.62;79.49;100217.02;432772;1270;98027;-42
2022/02/28 00:49:46;;;;;;;117.40;48.00;;;;;;;-3.81;79.31;100210.67;432542;1270;111200;-41
2022/02/28 00:59:54;;;;;;;104.40;44.10;;;;;;;-4.03;79.24;100210.76;432617;1270;107649;-42
2022/02/28 01:10:01;;;;;;;91.00;45.00;;;;;;;-4.14;79.28;100210.59;432667;1270;96989;-44
2022/02/28 01:20:11;;;;;;;84.60;40.90;;;;;;;-4.16;79.13;100204.16;432524;1270;109712;-40
2022/02/28 01:30:19;;;;;;;77.70;32.70;;;;;;;-4.03;79.22;100198.89;432555;1270;108186;-39
2022/02/28 01:40:27;;;;;;;95.50;41.10;;;;;;;-4.00;79.21;100196.09;432360;1271;97069;-41
2022/02/28 01:50:36;;;;;;;85.10;37.90;;;;;;;-4.17;79.15;100193.42;432552;1270;111033;-41
2022/02/28 02:00:42;;;;;;;82.70;37.00;;;;;;;-4.37;78.94;100187.30;432725;1270;108884;-41
2022/02/28 02:10:50;;;;;;;82.70;34.60;;;;;;;-4.64;79.09;100179.82;433027;1262;97931;-43
2022/02/28 02:20:58;;;;;;;77.20;34.30;;;;;;;-4.79;79.09;100177.17;432913;1270;97899;-40
2022/02/28 02:31:06;;;;;;;61.50;33.00;;;;;;;-4.91;79.23;100173.42;432956;1270;111358;-43
2022/02/28 02:41:14;;;;;;;72.40;38.10;;;;;;;-4.83;79.13;100177.08;432878;1269;108714;-40
2022/02/28 02:51:21;;;;;;;58.90;29.60;;;;;;;-4.77;79.15;100181.86;432816;1269;98742;-42
2022/02/28 03:01:27;;;;;;;57.10;27.40;;;;;;;-4.69;79.15;100184.45;432818;1270;108415;-41
2022/02/28 03:11:35;;;;;;;60.30;27.40;;;;;;;-4.69;79.03;100192.70;432947;1271;97970;-40
2022/02/28 03:21:42;;;;;;;53.50;26.30;;;;;;;-4.71;78.97;100194.42;433034;1269;111045;-40
2022/02/28 03:31:49;;;;;;;48.40;25.60;;;;;;;-4.73;79.11;100190.38;433401;1268;108658;-42
2022/02/28 03:41:57;;;;;;;62.00;27.90;;;;;;;-4.68;79.15;100188.02;433474;1268;97893;-40
2022/02/28 03:52:03;;;;;;;51.80;24.40;;;;;;;-4.63;79.11;100189.92;433326;1270;108874;-41
2022/02/28 04:02:12;;;;;;;74.70;33.00;;;;;;;-4.64;78.99;100191.21;433483;1268;97923;-40
2022/02/28 04:12:19;;;;;;;74.10;30.40;;;;;;;-4.88;78.92;100194.40;433374;1269;97528;-40
2022/02/28 04:22:26;;;;;;;85.80;33.90;;;;;;;-5.12;79.05;100193.65;433322;1268;111309;-39
2022/02/28 04:32:33;;;;;;;94.90;37.10;;;;;;;-5.18;79.34;100194.66;433373;1268;108908;-40
2022/02/28 04:42:41;;;;;;;70.90;32.30;;;;;;;-5.25;79.32;100199.54;433482;1268;97909;-40
2022/02/28 04:52:49;;;;;;;72.20;39.80;;;;;;;-5.26;79.24;100196.81;433293;1268;108973;-40
2022/02/28 05:02:56;;;;;;;93.70;36.60;;;;;;;-5.21;79.15;100196.06;433011;1269;97924;-41
2022/02/28 05:13:03;;;;;;;55.00;29.20;;;;;;;-5.08;79.11;100200.56;433532;1268;110734;-40
2022/02/28 05:23:11;;;;;;;72.20;29.20;;;;;;;-5.01;79.05;100206.84;433250;1268;109116;-42
2022/02/28 05:43:25;;;;;;;63.60;29.20;;;;;;;-5.02;78.98;100213.48;433382;1268;109074;-40
2022/02/28 05:53:33;;;;;;;116.50;41.30;;;;;;;-4.91;79.06;100217.83;433263;1268;96702;-40
2022/02/28 06:03:40;;;;;;;86.70;41.10;;;;;;;-5.04;78.96;100218.92;433047;1270;97894;-42
2022/02/28 06:13:47;;;;;;;98.50;40.50;;;;;;;-5.16;78.83;100236.48;433341;1268;111311;-40
2022/02/28 06:23:57;;;;;;;91.60;37.00;;;;;;;-5.10;79.23;100246.13;433615;1268;108948;-41
2022/02/28 06:34:04;;;;;;;146.40;59.30;;;;;;;-4.62;79.76;100248.04;433088;1271;98003;-40
2022/02/28 06:44:10;;;;;;;147.20;57.80;;;;;;;-3.12;80.52;100252.45;433470;1268;110971;-42
2022/02/28 06:54:18;;;;;;;109.90;45.10;;;;;;;-1.81;79.51;100251.94;433390;1268;108764;-41
2022/02/28 07:04:25;;;;;;;87.70;39.10;;;;;;;-1.20;78.64;100264.56;433364;1268;97916;-41
2022/02/28 07:14:33;;;;;;;51.00;23.00;;;;;;;-0.80;78.44;100277.27;433329;1268;111299;-39
2022/02/28 07:24:40;;;;;;;34.70;14.20;;;;;;;-0.57;78.55;100284.70;432900;1271;108870;-42
2022/02/28 07:34:47;;;;;;;30.40;15.10;;;;;;;-0.58;78.53;100289.44;433460;1268;97395;-40
2022/02/28 07:44:57;;;;;;;34.10;17.00;;;;;;;-0.78;78.44;100302.95;433437;1268;108718;-40
2022/02/28 07:55:04;;;;;;;34.40;16.20;;;;;;;-0.63;78.83;100303.69;432504;1269;109637;-40
2022/02/28 08:05:12;;;;;;;19.00;9.80;;;;;;;-0.16;77.70;100305.10;433414;1268;97862;-40
2022/02/28 08:15:22;;;;;;;20.40;10.80;;;;;;;0.48;76.87;100312.79;433485;1268;110982;-41
2022/02/28 08:25:30;;;;;;;20.80;11.10;;;;;;;0.47;75.09;100317.89;433432;1268;109262;-41
2022/02/28 08:45:41;;;;;;;18.80;10.30;;;;;;;0.51;73.74;100325.05;433283;1268;98026;-43
2022/02/28 08:55:48;;;;;;;18.10;9.60;;;;;;;0.44;72.00;100335.66;433325;1268;97921;-41
2022/02/28 09:05:55;;;;;;;23.40;8.30;;;;;;;0.52;71.45;100334.62;433488;1268;108863;-42
2022/02/28 09:16:04;;;;;;;18.30;9.20;;;;;;;0.73;70.43;100339.91;433245;1268;107463;-44
2022/02/28 09:26:10;;;;;;;12.80;7.30;;;;;;;0.71;68.08;100340.61;429444;1268;5382141;-41
2022/02/28 09:36:31;;;;;;;13.10;5.50;;;;;;;0.75;67.01;100347.24;433188;1268;108388;-41
2022/02/28 09:46:46;;;;;;;11.20;5.60;;;;;;;0.85;66.04;100350.20;433464;1268;108495;-44
2022/02/28 09:56:54;;;;;;;10.80;5.30;;;;;;;1.15;65.22;100350.83;433380;1268;96763;-44
2022/02/28 10:17:06;;;;;;;9.10;5.40;;;;;;;1.48;63.93;100357.45;433442;1268;107426;-40
2022/02/28 10:27:18;;;;;;;11.20;4.70;;;;;;;1.49;62.64;100361.41;433426;1268;108102;-41
2022/02/28 10:37:24;;;;;;;10.30;4.80;;;;;;;1.38;61.19;100362.83;432627;1271;97990;-42
2022/02/28 10:47:45;;;;;;;9.50;5.80;;;;;;;1.40;60.84;100360.23;433624;1265;97932;-40
2022/02/28 11:08:18;;;;;;;7.40;3.40;;;;;;;1.77;59.71;100359.02;433340;1267;108845;-41
2022/02/28 11:18:30;;;;;;;5.50;2.70;;;;;;;2.01;60.03;100354.48;433396;1268;108803;-41
2022/02/28 11:28:37;;;;;;;6.70;2.70;;;;;;;2.49;58.13;100352.90;433501;1268;97621;-42
2022/02/28 11:38:48;;;;;;;4.60;2.20;;;;;;;2.59;55.75;100351.65;433367;1268;98027;-40
2022/02/28 11:48:57;;;;;;;6.50;2.80;;;;;;;2.44;55.85;100353.17;433436;1268;109343;-41
2022/02/28 11:59:15;;;;;;;8.00;3.00;;;;;;;2.35;53.44;100354.13;433431;1268;108875;-41
2022/02/28 12:09:42;;;;;;;3.90;2.60;;;;;;;2.19;52.46;100352.23;433392;1268;108777;-44
2022/02/28 12:19:49;;;;;;;8.60;3.80;;;;;;;1.97;51.76;100364.21;433354;1268;97824;-40
2022/02/28 12:29:56;;;;;;;6.10;3.30;;;;;;;2.35;53.05;100352.71;433468;1268;111064;-42
2022/02/28 12:40:06;;;;;;;4.30;3.00;;;;;;;2.63;50.28;100361.86;432834;1270;108819;-42
2022/02/28 12:50:12;;;;;;;6.70;3.80;;;;;;;2.23;50.24;100370.14;433096;1270;108798;-40
2022/02/28 13:00:18;;;;;;;7.20;3.50;;;;;;;2.54;50.86;100371.04;433460;1268;97905;-42
2022/02/28 13:10:24;;;;;;;5.30;3.10;;;;;;;2.69;49.93;100390.94;433572;1268;110947;-40
2022/02/28 13:20:37;;;;;;;7.80;3.90;;;;;;;2.50;50.60;100387.40;433398;1268;108642;-43
2022/02/28 13:30:44;;;;;;;5.90;3.70;;;;;;;2.60;51.01;100386.23;433631;1268;109079;-41
2022/02/28 13:40:53;;;;;;;7.70;3.10;;;;;;;2.88;49.36;100379.65;433477;1268;97969;-42
2022/02/28 14:01:11;;;;;;;6.00;3.50;;;;;;;2.80;47.76;100382.34;433552;1267;111719;-40
2022/02/28 14:11:27;;;;;;;9.60;4.50;;;;;;;2.81;48.13;100370.70;433469;1268;108789;-40
2022/02/28 14:21:33;;;;;;;8.50;3.10;;;;;;;2.76;47.84;100382.34;433807;1268;108786;-41
2022/02/28 14:31:51;;;;;;;5.70;3.20;;;;;;;2.63;48.95;100388.91;433723;1268;96670;-40
2022/02/28 14:41:58;;;;;;;9.40;4.20;;;;;;;2.55;48.99;100396.58;433389;1268;111081;-41
2022/02/28 14:52:06;;;;;;;7.60;3.60;;;;;;;2.56;48.52;100403.06;433457;1268;107847;-41
2022/02/28 15:02:14;;;;;;;8.40;3.70;;;;;;;2.63;49.48;100401.27;432430;1268;108829;-41
2022/02/28 15:12:21;;;;;;;7.30;3.80;;;;;;;2.52;49.52;100412.13;433613;1268;97913;-43
2022/02/28 15:22:28;;;;;;;11.20;4.90;;;;;;;2.39;49.99;100415.55;433107;1270;111247;-39
2022/02/28 15:32:34;;;;;;;15.70;6.00;;;;;;;2.28;50.41;100421.70;433844;1268;108405;-40
2022/02/28 15:42:42;;;;;;;10.70;4.50;;;;;;;2.13;50.95;100429.66;433811;1268;108812;-42
2022/02/28 15:52:50;;;;;;;17.40;8.30;;;;;;;2.06;51.61;100429.38;433736;1266;97897;-43
2022/02/28 16:13:06;;;;;;;19.80;9.00;;;;;;;1.75;52.78;100432.56;433888;1268;108793;-41
2022/02/28 16:23:13;;;;;;;28.10;13.20;;;;;;;1.56;53.60;100439.36;433734;1268;109169;-44
2022/02/28 16:33:20;;;;;;;26.00;12.10;;;;;;;1.36;54.13;100448.28;433830;1268;96672;-42
2022/02/28 16:43:27;;;;;;;20.60;9.10;;;;;;;1.17;54.27;100456.66;433802;1267;111857;-43
2022/02/28 16:53:33;;;;;;;29.70;12.10;;;;;;;0.94;54.95;100465.80;433773;1268;108852;-41
2022/02/28 17:03:41;;;;;;;18.80;10.00;;;;;;;0.65;55.44;100471.80;433842;1268;108675;-42
2022/02/28 17:13:49;;;;;;;51.80;20.60;;;;;;;0.33;56.13;100477.06;433834;1267;96708;-40
2022/02/28 17:23:55;;;;;;;52.20;22.40;;;;;;;0.09;56.69;100481.02;433795;1267;109141;-44
2022/02/28 17:34:03;;;;;;;55.60;24.70;;;;;;;-0.12;57.19;100483.64;433785;1267;108967;-42
2022/02/28 17:44:09;;;;;;;56.80;25.20;;;;;;;-0.26;57.85;100485.94;433840;1266;107780;-41
2022/02/28 17:54:16;;;;;;;59.40;25.30;;;;;;;-0.50;58.33;100488.76;433831;1267;97982;-40
2022/02/28 18:04:23;;;;;;;51.70;20.90;;;;;;;-0.64;58.67;100501.23;433711;1268;109124;-40
2022/02/28 18:14:31;;;;;;;47.80;21.70;;;;;;;-0.72;58.88;100504.02;433982;1267;96697;-42
2022/02/28 18:34:45;;;;;;;52.40;19.80;;;;;;;-0.85;59.67;100520.73;433880;1268;108569;-41
2022/02/28 18:44:52;;;;;;;39.10;18.90;;;;;;;-0.88;60.12;100523.79;433687;1268;97997;-42
2022/02/28 18:55:00;;;;;;;49.90;21.70;;;;;;;-0.94;60.41;100529.35;433447;1268;111019;-39
2022/02/28 19:05:08;;;;;;;37.50;18.70;;;;;;;-0.98;60.49;100536.57;433064;1270;108772;-41
2022/02/28 19:15:17;;;;;;;75.40;30.80;;;;;;;-1.26;60.77;100538.73;433412;1268;97954;-41
2022/02/28 19:25:24;;;;;;;47.30;22.90;;;;;;;-1.59;61.27;100537.55;433451;1268;110042;-44
2022/02/28 19:35:32;;;;;;;80.10;28.90;;;;;;;-1.91;61.49;100536.64;433272;1268;108768;-41
2022/02/28 19:45:40;;;;;;;94.20;31.20;;;;;;;-2.13;62.16;100540.39;433342;1268;96697;-41
2022/02/28 19:55:48;;;;;;;58.60;27.50;;;;;;;-2.23;62.64;100538.78;433325;1268;111170;-41
2022/02/28 20:05:55;;;;;;;47.30;20.40;;;;;;;-2.22;62.89;100546.35;433442;1267;109336;-41
2022/02/28 20:16:03;;;;;;;77.70;33.90;;;;;;;-2.28;63.14;100548.14;433830;1268;96708;-40
2022/02/28 20:26:11;;;;;;;73.20;31.20;;;;;;;-2.46;63.57;100549.11;433408;1268;110015;-41
2022/02/28 20:36:21;;;;;;;97.10;39.40;;;;;;;-2.67;63.83;100545.67;432909;1270;109642;-40
2022/02/28 20:46:28;;;;;;;213.50;70.90;;;;;;;-2.95;64.05;100549.36;433396;1268;109392;-40
2022/02/28 20:56:37;;;;;;;169.00;55.20;;;;;;;-3.20;64.34;100544.32;433320;1268;97939;-41
2022/02/28 21:06:45;;;;;;;190.90;65.40;;;;;;;-3.42;64.72;100545.52;433309;1268;108864;-41
2022/02/28 21:16:52;;;;;;;256.20;87.50;;;;;;;-3.55;65.16;100549.48;433308;1268;97544;-42
2022/02/28 21:26:59;;;;;;;213.50;77.50;;;;;;;-3.66;65.54;100547.86;429339;1268;5661249;-40
2022/02/28 21:37:04;;;;;;;160.30;70.20;;;;;;;-3.75;65.64;100546.70;433384;1269;107907;-43
2022/02/28 21:47:10;;;;;;;164.00;73.10;;;;;;;-3.64;66.06;100545.02;433320;1268;97955;-40
2022/02/28 21:57:19;;;;;;;189.40;73.80;;;;;;;-3.61;66.18;100531.90;433355;1268;108829;-41
2022/02/28 22:17:33;;;;;;;239.10;85.70;;;;;;;-3.91;66.64;100513.37;433521;1268;97500;-42
2022/02/28 22:27:41;;;;;;;239.00;87.00;;;;;;;-4.12;66.86;100518.20;433440;1268;111022;-40
2022/02/28 22:37:48;;;;;;;234.80;79.00;;;;;;;-4.24;67.20;100521.70;433452;1268;108819;-42
2022/02/28 22:47:56;;;;;;;247.70;90.90;;;;;;;-4.42;67.42;100523.09;433519;1268;98029;-41
2022/02/28 22:58:03;;;;;;;263.90;102.40;;;;;;;-4.54;67.85;100525.99;433413;1268;111240;-40
2022/02/28 23:18:35;;;;;;;215.70;98.30;;;;;;;-4.78;67.50;100519.95;433478;1268;97909;-39
2022/02/28 23:28:43;;;;;;;187.60;90.50;;;;;;;-4.66;68.08;100523.76;433363;1268;111027;-40
2022/02/28 23:38:50;;;;;;;237.40;94.10;;;;;;;-4.56;68.18;100526.46;433564;1268;108866;-40
2022/02/28 23:48:58;;;;;;;271.20;103.60;;;;;;;-4.54;68.47;100529.45;433593;1268;97670;-40
2022/02/28 23:59:05;;;;;;;274.30;103.10;;;;;;;-4.77;68.48;100535.04;433845;1268;111248;-44
